createdAt,value
2017-12-24T00:04:43.569Z,2.10
2017-12-24T00:09:46.935Z,2.57
2017-12-24T00:14:49.549Z,3.10
2017-12-24T00:19:52.115Z,2.53
2017-12-24T00:24:54.753Z,2.60
2017-12-24T00:29:57.358Z,2.10
2017-12-24T00:34:59.947Z,2.30
2017-12-24T00:40:02.576Z,2.43
2017-12-24T00:45:05.150Z,2.80
2017-12-24T00:50:07.721Z,1.97
2017-12-24T00:55:10.342Z,2.30
2017-12-24T01:00:13.684Z,2.13
2017-12-24T01:05:16.240Z,1.83
2017-12-24T01:10:18.880Z,2.37
2017-12-24T01:15:21.448Z,1.90
2017-12-24T01:20:24.088Z,1.90
2017-12-24T01:25:26.689Z,1.87
2017-12-24T01:30:29.501Z,1.53
2017-12-24T01:35:32.076Z,2.33
2017-12-24T01:40:34.697Z,1.90
2017-12-24T01:45:37.259Z,1.80
2017-12-24T01:50:40.630Z,1.37
2017-12-24T01:55:43.231Z,1.70
2017-12-24T02:00:45.829Z,1.73
2017-12-24T02:05:48.383Z,1.50
2017-12-24T02:10:51.712Z,1.73
2017-12-24T02:15:54.293Z,1.30
2017-12-24T02:20:56.883Z,1.60
2017-12-24T02:25:59.456Z,2.23
2017-12-24T02:31:02.057Z,1.40
2017-12-24T02:36:04.620Z,1.63
2017-12-24T02:41:07.158Z,1.23
2017-12-24T02:46:09.718Z,1.20
2017-12-24T02:51:12.334Z,2.03
2017-12-24T02:56:14.871Z,1.53
2017-12-24T03:01:17.449Z,1.53
2017-12-24T03:06:20.032Z,1.63
2017-12-24T03:11:22.611Z,1.60
2017-12-24T03:16:25.204Z,1.67
2017-12-24T03:21:28.565Z,1.53
2017-12-24T03:26:31.176Z,1.40
2017-12-24T03:31:33.780Z,1.70
2017-12-24T03:36:36.370Z,1.50
2017-12-24T03:41:39.041Z,1.03
2017-12-24T03:46:41.660Z,1.60
2017-12-24T03:51:44.258Z,1.27
2017-12-24T03:56:46.826Z,1.40
2017-12-24T04:01:50.183Z,1.10
2017-12-24T04:06:52.757Z,1.27
2017-12-24T04:11:55.350Z,1.50
2017-12-24T04:17:05.003Z,1.50
2017-12-24T04:22:15.391Z,1.20
2017-12-24T04:27:21.271Z,1.60
2017-12-24T04:32:24.016Z,2.43
2017-12-24T04:37:26.565Z,1.57
2017-12-24T04:42:29.127Z,1.80
2017-12-24T04:47:31.696Z,1.90
2017-12-24T04:52:34.295Z,2.00
2017-12-24T04:57:36.875Z,2.10
2017-12-24T05:02:39.515Z,1.83
2017-12-24T05:07:42.137Z,1.93
2017-12-24T05:12:44.709Z,1.80
2017-12-24T05:17:47.269Z,2.20
2017-12-24T05:22:49.836Z,1.73
2017-12-24T05:27:52.540Z,2.20
2017-12-24T05:32:55.178Z,2.00
2017-12-24T05:37:57.763Z,2.30
2017-12-24T05:43:00.369Z,2.57
2017-12-24T05:48:02.925Z,2.30
2017-12-24T05:53:05.532Z,2.90
2017-12-24T05:58:08.107Z,2.13
2017-12-24T06:03:10.659Z,2.07
2017-12-24T06:08:13.219Z,2.43
2017-12-24T06:13:15.787Z,2.27
2017-12-24T06:18:18.325Z,2.57
2017-12-24T06:23:20.912Z,1.90
2017-12-24T06:28:23.472Z,2.17
2017-12-24T06:33:26.007Z,2.43
2017-12-24T06:38:28.633Z,2.50
2017-12-24T06:43:31.201Z,2.73
2017-12-24T06:48:33.774Z,2.20
2017-12-24T06:53:37.120Z,6.00
2017-12-24T06:58:39.685Z,5.13
2017-12-24T07:03:42.227Z,7.27
2017-12-24T07:08:44.828Z,5.43
2017-12-24T07:13:47.412Z,6.83
2017-12-24T07:18:49.995Z,7.23
2017-12-24T07:23:52.606Z,7.20
2017-12-24T07:28:55.205Z,7.10
2017-12-24T07:39:23.360Z,7.40
2017-12-24T07:44:26.656Z,8.00
2017-12-24T07:49:29.594Z,9.30
2017-12-24T07:54:32.191Z,7.87
2017-12-24T07:59:34.786Z,8.40
2017-12-24T08:04:37.348Z,8.37
2017-12-24T08:09:39.920Z,7.50
2017-12-24T08:14:43.270Z,8.30
2017-12-24T08:19:46.648Z,9.40
2017-12-24T08:24:49.351Z,8.43
2017-12-24T08:29:52.183Z,7.77
2017-12-24T08:34:55.729Z,9.30
2017-12-24T08:39:59.849Z,8.43
2017-12-24T08:45:02.686Z,7.60
2017-12-24T08:50:06.204Z,8.40
2017-12-24T08:55:08.847Z,7.63
2017-12-24T09:00:11.715Z,9.67
2017-12-24T09:05:14.610Z,8.87
2017-12-24T09:10:17.245Z,8.97
2017-12-24T09:15:19.879Z,8.07
2017-12-24T09:20:22.483Z,7.57
2017-12-24T09:25:25.204Z,7.80
2017-12-24T09:30:27.826Z,8.30
2017-12-24T09:35:30.452Z,8.10
2017-12-24T09:40:33.066Z,11.10
2017-12-24T09:45:35.689Z,7.77
2017-12-24T09:50:38.305Z,7.83
2017-12-24T09:55:41.071Z,7.80
2017-12-24T10:00:43.659Z,8.07
2017-12-24T10:05:46.247Z,6.83
2017-12-24T10:10:48.839Z,7.20
2017-12-24T10:15:51.507Z,7.33
2017-12-24T10:20:54.100Z,7.80
2017-12-24T10:25:57.426Z,6.67
2017-12-24T10:31:00.147Z,7.40
2017-12-24T10:36:02.842Z,5.80
2017-12-24T10:41:05.666Z,6.47
2017-12-24T10:46:09.301Z,6.00
2017-12-24T10:51:11.929Z,6.40
2017-12-24T10:56:14.623Z,5.97
2017-12-24T11:01:17.978Z,5.50
2017-12-24T11:06:20.644Z,6.70
2017-12-24T11:11:23.949Z,5.60
2017-12-24T11:44:03.139Z,4.93
2017-12-24T11:49:05.817Z,4.50
2017-12-24T11:54:08.439Z,3.83
2017-12-24T11:59:11.020Z,3.80
2017-12-24T12:04:13.642Z,4.37
2017-12-24T12:09:16.262Z,3.70
2017-12-24T12:14:19.012Z,4.03
2017-12-24T12:19:21.827Z,5.17
2017-12-24T12:24:24.562Z,4.53
2017-12-24T12:29:27.137Z,4.23
2017-12-24T12:34:29.722Z,3.90
2017-12-24T12:39:32.302Z,6.80
2017-12-24T12:44:34.868Z,5.40
2017-12-24T12:49:37.502Z,3.83
2017-12-24T12:54:40.059Z,3.20
2017-12-24T12:59:42.625Z,3.50
2017-12-24T13:04:45.183Z,3.90
2017-12-24T13:09:47.742Z,3.10
2017-12-24T13:14:50.369Z,3.20
2017-12-24T13:19:53.027Z,2.93
2017-12-24T13:24:56.021Z,2.90
2017-12-24T13:29:58.594Z,5.07
2017-12-24T13:35:01.234Z,4.97
2017-12-24T13:40:03.824Z,4.63
2017-12-24T13:45:06.385Z,3.60
2017-12-24T13:50:08.979Z,3.80
2017-12-24T13:55:11.580Z,3.93
2017-12-24T14:00:14.228Z,4.27
2017-12-24T14:05:16.903Z,7.13
2017-12-24T14:10:19.464Z,4.70
2017-12-24T14:15:22.057Z,4.70
2017-12-24T14:20:24.690Z,4.53
2017-12-24T14:25:27.252Z,4.40
2017-12-24T14:30:29.806Z,6.20
2017-12-24T14:35:33.148Z,5.40
2017-12-24T14:40:35.802Z,5.50
2017-12-24T14:45:38.464Z,5.07
2017-12-24T14:50:41.085Z,5.40
2017-12-24T14:55:43.751Z,5.07
2017-12-24T15:00:46.662Z,5.70
2017-12-24T15:05:49.242Z,6.60
2017-12-24T15:10:51.823Z,5.53
2017-12-24T15:15:54.407Z,6.37
2017-12-24T15:20:56.979Z,5.57
2017-12-24T15:25:59.566Z,5.40
2017-12-24T15:31:02.137Z,6.17
2017-12-24T15:36:04.688Z,4.90
2017-12-24T15:41:08.072Z,5.00
2017-12-24T15:46:10.641Z,8.23
2017-12-24T15:51:13.192Z,5.43
2017-12-24T15:56:15.773Z,4.53
2017-12-24T16:01:18.356Z,4.77
2017-12-24T16:06:20.910Z,3.67
2017-12-24T16:11:23.486Z,3.20
2017-12-24T16:16:26.068Z,3.60
2017-12-24T16:21:28.720Z,3.57
2017-12-24T16:26:33.737Z,4.93
2017-12-24T16:31:38.664Z,4.90
2017-12-24T16:36:42.305Z,6.07
2017-12-24T16:41:44.918Z,6.30
2017-12-24T16:46:47.484Z,4.37
2017-12-24T16:51:50.069Z,5.00
2017-12-24T16:56:52.622Z,4.27
2017-12-24T17:01:55.194Z,5.10
2017-12-24T17:06:58.537Z,4.90
2017-12-24T17:12:01.106Z,5.10
2017-12-24T17:17:04.458Z,4.50
2017-12-24T17:22:07.033Z,3.33
2017-12-24T17:27:09.607Z,4.20
2017-12-24T17:32:12.177Z,4.67
2017-12-24T17:37:14.732Z,4.50
2017-12-24T17:42:17.300Z,3.40
2017-12-24T17:47:19.872Z,3.47
2017-12-24T17:52:22.434Z,2.80
2017-12-24T17:57:25.000Z,3.63
2017-12-24T18:02:27.587Z,2.70
2017-12-24T18:07:30.160Z,3.10
2017-12-24T18:12:32.746Z,3.83
2017-12-24T18:17:35.337Z,3.27
2017-12-24T18:22:37.910Z,3.33
2017-12-24T18:27:40.475Z,2.67
2017-12-24T18:32:43.115Z,3.60
2017-12-24T18:37:45.671Z,3.60
2017-12-24T18:42:48.211Z,3.60
2017-12-24T18:47:50.799Z,3.20
2017-12-24T18:52:55.503Z,3.97
2017-12-24T18:57:58.236Z,3.60
2017-12-24T19:03:00.803Z,3.83
2017-12-24T19:08:04.131Z,3.40
2017-12-24T19:13:07.311Z,3.30
2017-12-24T19:18:09.898Z,4.37
2017-12-24T19:23:12.473Z,4.37
2017-12-24T19:28:15.050Z,2.80
2017-12-24T19:33:17.613Z,5.20
2017-12-24T19:38:20.204Z,4.70
2017-12-24T19:43:22.753Z,4.13
2017-12-24T19:48:25.365Z,4.10
2017-12-24T19:53:27.958Z,3.27
2017-12-24T19:58:30.512Z,5.40
2017-12-24T20:03:33.117Z,5.00
2017-12-24T20:08:37.058Z,3.47
2017-12-24T20:13:40.035Z,5.23
2017-12-24T20:18:42.965Z,5.50
2017-12-24T20:23:46.137Z,3.77
2017-12-24T20:28:48.909Z,4.10
2017-12-24T20:33:51.900Z,4.40
2017-12-24T20:38:54.763Z,4.47
2017-12-24T20:43:57.899Z,4.00
2017-12-24T20:49:00.640Z,4.43
2017-12-24T20:54:03.477Z,3.60
2017-12-24T20:59:07.196Z,5.57
2017-12-24T21:04:10.029Z,3.80
2017-12-24T21:09:12.781Z,6.10
2017-12-24T21:14:15.583Z,4.70
2017-12-24T21:19:18.642Z,4.67
2017-12-24T21:24:22.564Z,4.67
2017-12-24T21:29:25.368Z,5.70
2017-12-24T21:34:27.957Z,5.00
2017-12-24T21:39:30.916Z,4.70
2017-12-24T21:44:33.627Z,5.27
2017-12-24T21:49:36.803Z,5.17
2017-12-24T21:54:39.677Z,5.00
2017-12-24T21:59:42.685Z,5.40
2017-12-24T22:04:49.277Z,5.00
2017-12-24T22:09:52.648Z,5.20
2017-12-24T22:14:55.209Z,6.40
2017-12-24T22:19:57.766Z,6.50
2017-12-24T22:25:00.302Z,5.93
2017-12-24T22:30:02.875Z,6.80
2017-12-24T22:35:05.414Z,5.87
2017-12-24T22:40:07.962Z,6.17
2017-12-24T22:45:10.502Z,6.03
2017-12-24T22:50:13.068Z,6.90
2017-12-24T22:55:15.605Z,7.10
2017-12-24T23:00:18.154Z,6.77
2017-12-24T23:05:20.706Z,6.87
2017-12-24T23:10:23.257Z,6.00
2017-12-24T23:15:26.591Z,6.93
2017-12-24T23:20:29.134Z,6.70
2017-12-24T23:25:31.669Z,6.90
2017-12-24T23:30:34.237Z,8.10
2017-12-24T23:35:36.776Z,8.53
2017-12-24T23:40:39.315Z,8.00
2017-12-24T23:45:41.875Z,7.47
2017-12-24T23:50:44.411Z,6.90
2017-12-24T23:55:46.950Z,6.50
